Time;durP1;ratioP1;P1;durP2;ratioP2;P2;SDS_P1;SDS_P2;PMS_P1;PMS_P2;Temp;Humidity;BMP_temperature;BMP_pressure;BME280_temperature;BME280_humidity;BME280_pressure;Samples;Min_cycle;Max_cycle;Signal;HPM_P1;HPM_P2
2022/11/24 00:01:16;;;;;;;19.42;17.77;;;;;;;10.77;63.03;100154.47;4975269;28;20125;-69
2022/11/24 00:03:51;;;;;;;18.88;17.27;;;;;;;10.76;63.22;100153.66;4975198;28;20414;-70
2022/11/24 00:06:16;;;;;;;18.98;17.52;;;;;;;10.75;63.30;100154.72;4990747;28;20376;-75
2022/11/24 00:08:43;;;;;;;17.73;16.70;;;;;;;10.74;63.03;100153.09;4975791;28;20043;-69
2022/11/24 00:11:15;;;;;;;18.98;17.58;;;;;;;10.75;63.08;100159.31;4973809;28;20034;-70
2022/11/24 00:13:41;;;;;;;19.85;18.60;;;;;;;10.75;62.99;100156.59;4975474;28;20039;-69
2022/11/24 00:16:14;;;;;;;19.92;18.52;;;;;;;10.75;63.32;100168.22;4989932;28;20046;-70
2022/11/24 00:18:41;;;;;;;18.42;17.27;;;;;;;10.74;63.03;100163.91;4974920;28;20034;-69
2022/11/24 00:21:06;;;;;;;20.48;18.88;;;;;;;10.75;63.15;100165.53;4974676;28;20106;-69
2022/11/24 00:23:32;;;;;;;19.83;18.35;;;;;;;10.74;62.94;100165.78;4974867;28;20030;-70
2022/11/24 00:26:06;;;;;;;19.05;17.65;;;;;;;10.74;63.21;100166.59;4974805;28;20045;-70
2022/11/24 00:28:33;;;;;;;19.20;17.80;;;;;;;10.73;63.19;100159.56;4974768;28;20113;-71
2022/11/24 00:30:59;;;;;;;18.77;17.38;;;;;;;10.74;62.94;100171.19;4989765;28;20467;-70
2022/11/24 00:33:24;;;;;;;19.92;18.10;;;;;;;10.74;62.98;100173.91;4974774;28;20033;-72
2022/11/24 00:35:55;;;;;;;19.67;18.40;;;;;;;10.72;63.04;100163.34;4974494;28;20047;-71
2022/11/24 00:38:23;;;;;;;19.42;18.10;;;;;;;10.73;63.04;100164.16;4974250;28;20034;-71
2022/11/24 00:40:49;;;;;;;18.25;17.10;;;;;;;10.73;63.17;100164.97;4980139;28;20038;-69
2022/11/24 00:43:15;;;;;;;18.35;17.25;;;;;;;10.71;62.95;100163.59;4980031;28;20034;-69
2022/11/24 00:45:41;;;;;;;19.05;17.65;;;;;;;10.72;63.00;100167.94;4995928;28;20041;-69
2022/11/24 00:48:06;;;;;;;19.30;17.60;;;;;;;10.72;62.94;100171.44;4981869;28;20089;-69
2022/11/24 00:50:32;;;;;;;19.92;18.55;;;;;;;10.72;63.07;100176.03;4996011;28;20038;-69
2022/11/24 00:52:57;;;;;;;18.40;17.30;;;;;;;10.71;62.97;100183.34;4981074;28;20045;-69
2022/11/24 00:55:22;;;;;;;18.63;17.55;;;;;;;10.71;62.96;100186.03;4980969;28;20467;-70
2022/11/24 00:57:48;;;;;;;18.50;17.30;;;;;;;10.71;63.03;100191.44;4981012;28;20035;-69
2022/11/24 01:00:13;;;;;;;19.02;17.40;;;;;;;10.70;62.97;100189.78;4995736;28;20037;-69
2022/11/24 01:02:39;;;;;;;19.30;17.80;;;;;;;10.70;63.05;100192.50;4981638;28;20066;-71
2022/11/24 01:05:04;;;;;;;18.20;17.05;;;;;;;10.70;63.01;100200.59;4980891;28;20037;-69
2022/11/24 01:07:30;;;;;;;19.98;18.63;;;;;;;10.68;63.04;100200.03;4980217;28;20035;-70
2022/11/24 01:09:55;;;;;;;18.33;17.08;;;;;;;10.67;63.11;100198.41;4980621;28;20479;-69
2022/11/24 01:12:21;;;;;;;20.45;19.17;;;;;;;10.69;62.64;100204.38;4979445;28;20085;-70
2022/11/24 01:14:46;;;;;;;19.85;18.08;;;;;;;10.67;62.88;100195.72;4995914;28;20471;-69
2022/11/24 01:17:11;;;;;;;18.95;17.58;;;;;;;10.68;62.96;100189.22;4980225;28;20042;-69
2022/11/24 01:19:37;;;;;;;19.05;17.65;;;;;;;10.68;63.08;100193.81;4980806;28;20129;-69
2022/11/24 01:22:02;;;;;;;18.42;17.13;;;;;;;10.67;63.15;100184.91;4981292;28;20030;-70
2022/11/24 01:24:28;;;;;;;18.80;17.55;;;;;;;10.67;62.97;100187.59;4979465;28;20474;-70
2022/11/24 01:26:53;;;;;;;17.92;16.80;;;;;;;10.67;63.02;100203.81;4979472;28;20121;-70
2022/11/24 01:29:18;;;;;;;20.70;19.40;;;;;;;10.67;63.01;100203.00;4995678;28;20031;-70
2022/11/24 01:31:44;;;;;;;18.40;17.27;;;;;;;10.66;63.07;100202.19;4995442;28;20082;-71
2022/11/24 01:34:09;;;;;;;18.58;17.67;;;;;;;10.66;62.88;100215.69;4996198;28;20149;-70
2022/11/24 01:36:34;;;;;;;19.35;18.15;;;;;;;10.66;62.87;100215.69;4980669;28;20459;-70
2022/11/24 01:39:00;;;;;;;17.80;16.83;;;;;;;10.65;62.92;100219.47;4979433;28;20046;-70
2022/11/24 01:41:26;;;;;;;18.15;17.13;;;;;;;10.65;62.98;100219.47;4978993;28;20047;-73
2022/11/24 01:43:53;;;;;;;19.00;17.70;;;;;;;10.65;63.00;100227.56;4980529;28;20035;-69
2022/11/24 01:46:27;;;;;;;19.08;17.75;;;;;;;10.66;63.01;100228.38;4980254;28;20498;-70
2022/11/24 01:49:07;;;;;;;19.15;17.67;;;;;;;10.64;62.96;100230.53;4980814;28;20479;-71
2022/11/24 01:51:35;;;;;;;20.60;19.08;;;;;;;10.63;62.90;100235.09;4977980;28;20045;-71
2022/11/24 01:54:14;;;;;;;18.95;17.55;;;;;;;10.63;63.13;100234.28;4977751;28;20057;-70
2022/11/24 01:56:42;;;;;;;19.27;18.02;;;;;;;10.63;63.18;100231.59;4977450;28;20487;-70
2022/11/24 01:59:12;;;;;;;17.33;16.38;;;;;;;10.62;63.08;100228.06;4975847;28;20039;-71
2022/11/24 02:01:37;;;;;;;18.98;17.58;;;;;;;10.62;62.89;100238.88;4977241;28;20035;-71
2022/11/24 02:04:06;;;;;;;18.67;17.27;;;;;;;10.62;62.84;100249.69;4977316;28;20031;-70
2022/11/24 02:06:35;;;;;;;20.10;18.23;;;;;;;10.61;62.84;100246.19;4991721;28;20026;-72
2022/11/24 02:09:22;;;;;;;18.17;16.52;;;;;;;10.62;62.96;100252.38;4977702;28;20137;-70
2022/11/24 02:11:47;;;;;;;18.30;17.05;;;;;;;10.60;62.99;100258.03;4977168;28;20035;-70
2022/11/24 02:14:15;;;;;;;18.88;17.45;;;;;;;10.61;62.97;100248.88;4977105;28;20066;-71
2022/11/24 02:16:44;;;;;;;18.85;17.20;;;;;;;10.60;62.88;100260.72;4977257;28;20046;-70
2022/11/24 02:19:24;;;;;;;18.52;17.38;;;;;;;10.60;62.84;100258.03;4977025;28;20093;-70
2022/11/24 02:21:49;;;;;;;19.27;17.65;;;;;;;10.59;63.14;100259.13;4976753;28;20039;-70
2022/11/24 02:24:29;;;;;;;19.42;18.33;;;;;;;10.59;62.96;100261.00;4977429;28;20088;-70
2022/11/24 02:26:54;;;;;;;19.10;17.70;;;;;;;10.59;63.08;100269.09;4977330;28;20026;-70
2022/11/24 02:29:20;;;;;;;19.40;18.13;;;;;;;10.58;62.88;100271.00;4977147;28;20031;-70
2022/11/24 02:31:53;;;;;;;20.83;19.48;;;;;;;10.59;62.96;100277.22;4991631;28;20134;-70
2022/11/24 02:34:19;;;;;;;18.33;17.02;;;;;;;10.58;62.83;100275.56;4991382;28;20035;-71
2022/11/24 02:36:44;;;;;;;20.63;18.92;;;;;;;10.57;62.87;100273.94;4976889;28;20069;-70
2022/11/24 02:39:11;;;;;;;18.63;17.52;;;;;;;10.58;63.09;100286.38;4975494;28;20038;-70
2022/11/24 02:41:41;;;;;;;17.98;16.88;;;;;;;10.58;62.78;100283.66;4976762;28;20072;-70
2022/11/24 02:44:06;;;;;;;18.08;16.88;;;;;;;10.56;62.78;100286.63;4975340;28;20030;-70
2022/11/24 02:46:32;;;;;;;17.60;16.55;;;;;;;10.58;62.88;100286.38;4976436;28;20398;-71
2022/11/24 02:48:57;;;;;;;18.67;17.30;;;;;;;10.58;62.93;100286.38;4976468;28;20031;-69
2022/11/24 02:51:22;;;;;;;19.73;18.20;;;;;;;10.56;62.98;100289.34;4975184;28;20034;-70
2022/11/24 02:53:48;;;;;;;20.95;19.42;;;;;;;10.57;63.06;100298.25;4975129;28;20046;-71
2022/11/24 02:56:13;;;;;;;19.08;17.95;;;;;;;10.57;62.64;100295.53;4975100;28;20038;-69
2022/11/24 02:58:38;;;;;;;19.75;18.15;;;;;;;10.57;62.96;100300.94;4975292;28;20046;-70
2022/11/24 03:01:04;;;;;;;17.65;16.45;;;;;;;10.57;63.03;100292.84;4975013;28;20030;-71
2022/11/24 03:03:30;;;;;;;18.25;16.75;;;;;;;10.56;62.79;100291.22;4974739;28;20027;-72
2022/11/24 03:05:55;;;;;;;20.50;18.88;;;;;;;10.57;62.80;100303.66;4974767;28;20031;-70
2022/11/24 03:08:20;;;;;;;17.83;16.67;;;;;;;10.56;62.91;100304.72;4974940;28;20392;-70
2022/11/24 03:10:46;;;;;;;21.02;19.45;;;;;;;10.56;62.94;100307.44;4975705;28;20041;-71
2022/11/24 03:13:11;;;;;;;19.15;17.42;;;;;;;10.56;62.83;100308.25;4976294;28;20053;-70
2022/11/24 03:15:37;;;;;;;18.92;17.60;;;;;;;10.56;62.71;100313.63;4975913;28;20038;-71
2022/11/24 03:18:02;;;;;;;19.25;17.75;;;;;;;10.55;63.00;100309.28;4975930;28;20463;-70
2022/11/24 03:20:28;;;;;;;20.13;18.70;;;;;;;10.55;62.90;100309.28;4975864;28;20525;-70
2022/11/24 03:22:53;;;;;;;18.88;17.67;;;;;;;10.55;62.89;100309.28;4976100;28;20054;-70
2022/11/24 03:25:19;;;;;;;19.23;17.88;;;;;;;10.55;63.22;100313.88;4975930;28;20061;-70
2022/11/24 03:27:45;;;;;;;19.63;17.77;;;;;;;10.55;62.87;100316.59;4975685;28;20430;-70
2022/11/24 03:30:11;;;;;;;19.35;17.80;;;;;;;10.54;62.96;100310.38;4975967;28;20031;-70
2022/11/24 03:32:37;;;;;;;17.88;16.45;;;;;;;10.55;62.76;100312.00;4975637;28;20063;-70
2022/11/24 03:35:03;;;;;;;17.52;16.52;;;;;;;10.54;62.82;100298.75;4975536;28;20424;-70
2022/11/24 03:37:28;;;;;;;17.98;16.98;;;;;;;10.55;62.89;100303.06;4973910;28;20026;-70
2022/11/24 03:39:53;;;;;;;19.35;17.92;;;;;;;10.54;62.88;100312.25;4975508;28;20387;-70
2022/11/24 03:42:19;;;;;;;17.73;16.52;;;;;;;10.54;62.85;100307.66;4990355;28;20104;-70
2022/11/24 03:44:44;;;;;;;22.02;20.10;;;;;;;10.54;62.89;100307.66;4975083;28;20047;-70
2022/11/24 03:47:10;;;;;;;18.80;17.60;;;;;;;10.54;62.75;100301.47;4975339;28;20129;-70
2022/11/24 03:49:35;;;;;;;18.65;17.00;;;;;;;10.54;62.61;100309.56;4974406;28;20049;-70
2022/11/24 03:52:01;;;;;;;20.38;18.58;;;;;;;10.54;62.89;100312.25;4975312;28;20027;-70
2022/11/24 03:54:26;;;;;;;18.15;16.90;;;;;;;10.54;62.92;100313.06;4990384;28;20383;-70
2022/11/24 03:56:52;;;;;;;19.45;18.20;;;;;;;10.54;62.88;100318.47;4975445;28;20433;-70
2022/11/24 03:59:18;;;;;;;19.67;18.10;;;;;;;10.54;62.84;100323.88;4975400;28;20031;-70
2022/11/24 04:01:43;;;;;;;19.25;17.95;;;;;;;10.54;62.79;100333.88;4973906;28;20093;-76
2022/11/24 04:04:10;;;;;;;19.60;18.25;;;;;;;10.55;62.93;100313.88;4975184;28;20033;-70
2022/11/24 04:06:35;;;;;;;19.45;18.15;;;;;;;10.53;62.95;100353.81;4975075;28;20027;-70
2022/11/24 04:09:01;;;;;;;20.48;18.55;;;;;;;10.53;63.01;100360.06;4975004;28;20447;-71
2022/11/24 04:14:10;;;;;;;18.77;17.52;;;;;;;10.51;62.79;100372.19;4973321;28;20046;-71
2022/11/24 04:16:36;;;;;;;18.45;17.25;;;;;;;10.50;62.97;100373.22;4974043;28;20035;-72
2022/11/24 04:19:01;;;;;;;18.80;17.60;;;;;;;10.49;63.02;100379.72;4973938;28;20383;-72
2022/11/24 04:21:27;;;;;;;17.65;16.50;;;;;;;10.50;63.12;100370.53;4990291;28;20375;-71
2022/11/24 04:23:52;;;;;;;19.38;18.08;;;;;;;10.50;63.15;100371.34;4973731;28;20031;-70
2022/11/24 04:26:17;;;;;;;18.92;17.52;;;;;;;10.50;62.86;100376.75;4974488;28;20093;-72
2022/11/24 04:28:43;;;;;;;17.83;16.70;;;;;;;10.52;63.03;100390.00;4973579;28;20034;-70
2022/11/24 04:31:08;;;;;;;19.27;17.50;;;;;;;10.52;62.78;100392.72;4974678;28;20122;-72
2022/11/24 04:33:33;;;;;;;18.40;17.20;;;;;;;10.52;63.04;100390.00;4974792;28;20427;-71
2022/11/24 04:35:59;;;;;;;18.63;17.52;;;;;;;10.52;63.00;100395.41;4989634;28;20039;-72
2022/11/24 04:38:24;;;;;;;18.20;17.10;;;;;;;10.53;63.03;100388.94;4974995;28;20105;-70
2022/11/24 04:40:49;;;;;;;18.70;17.55;;;;;;;10.53;63.12;100394.31;4974637;28;20097;-71
2022/11/24 04:43:18;;;;;;;18.13;17.02;;;;;;;10.53;63.03;100389.78;4973119;28;20062;-70
2022/11/24 04:45:44;;;;;;;18.52;17.42;;;;;;;10.53;63.22;100397.03;4973642;28;20047;-70
2022/11/24 04:48:09;;;;;;;18.45;17.38;;;;;;;10.53;63.23;100392.47;4974807;28;20530;-70
2022/11/24 04:50:36;;;;;;;19.15;17.67;;;;;;;10.53;62.91;100395.16;4974347;28;20037;-70
2022/11/24 04:53:01;;;;;;;19.33;18.10;;;;;;;10.54;62.94;100394.09;4989462;28;20114;-70
2022/11/24 04:55:27;;;;;;;17.95;16.95;;;;;;;10.54;63.24;100399.50;4973566;28;20451;-70
2022/11/24 04:57:52;;;;;;;18.17;16.95;;;;;;;10.54;63.14;100402.19;4973021;28;20479;-70
2022/11/24 05:00:18;;;;;;;17.63;16.38;;;;;;;10.55;62.95;100408.41;4974093;28;20073;-70
2022/11/24 05:02:43;;;;;;;18.02;16.83;;;;;;;10.56;63.25;100396.56;4989482;28;20470;-70
2022/11/24 05:05:09;;;;;;;18.42;17.40;;;;;;;10.54;62.96;100402.19;4973550;28;20031;-70
2022/11/24 05:07:34;;;;;;;19.13;17.83;;;;;;;10.55;63.00;100411.91;4973262;28;20376;-70
2022/11/24 05:12:44;;;;;;;18.95;17.95;;;;;;;10.55;63.06;100411.09;4973204;28;20108;-71
2022/11/24 05:15:09;;;;;;;20.67;19.45;;;;;;;10.54;62.97;100413.00;4989339;28;20056;-70
2022/11/24 05:17:37;;;;;;;17.67;16.75;;;;;;;10.55;62.87;100413.81;4974109;28;20034;-71
2022/11/24 05:20:05;;;;;;;18.02;16.92;;;;;;;10.54;63.02;100415.69;4974298;28;20107;-70
2022/11/24 05:22:31;;;;;;;19.10;17.98;;;;;;;10.54;63.10;100415.69;4974300;28;20387;-70
2022/11/24 05:24:56;;;;;;;18.73;17.60;;;;;;;10.54;62.78;100423.81;4973975;28;20035;-71
2022/11/24 05:27:22;;;;;;;17.63;16.35;;;;;;;10.54;63.05;100426.50;4976508;28;20459;-71
2022/11/24 05:29:48;;;;;;;17.88;16.80;;;;;;;10.55;63.14;100436.22;4977713;28;20030;-71
2022/11/24 05:32:13;;;;;;;18.17;17.23;;;;;;;10.55;63.00;100441.63;4978047;28;20054;-71
2022/11/24 05:34:38;;;;;;;17.02;15.93;;;;;;;10.56;63.07;100442.47;4978092;28;20074;-71
2022/11/24 05:37:04;;;;;;;18.90;17.77;;;;;;;10.55;62.93;100443.50;4977476;28;20403;-71
2022/11/24 05:39:34;;;;;;;18.90;17.88;;;;;;;10.56;63.11;100455.97;4992676;28;20043;-71
2022/11/24 05:42:39;;;;;;;19.60;18.42;;;;;;;10.55;63.07;100460.53;4977598;28;20479;-71
2022/11/24 05:44:48;;;;;;;18.33;17.30;;;;;;;10.55;63.19;100460.53;4977434;28;20041;-72
2022/11/24 05:47:13;;;;;;;18.02;17.02;;;;;;;10.55;63.07;100468.63;4977745;28;20038;-71
2022/11/24 05:49:38;;;;;;;18.73;17.73;;;;;;;10.54;63.07;100464.31;4992791;28;20121;-70
2022/11/24 05:52:04;;;;;;;19.10;18.00;;;;;;;10.55;63.20;100465.94;4977478;28;20035;-73
2022/11/24 05:54:29;;;;;;;17.90;16.85;;;;;;;10.54;63.20;100468.91;4977233;28;20026;-72
2022/11/24 05:56:55;;;;;;;17.77;16.70;;;;;;;10.55;63.13;100467.81;4977200;28;20081;-75
2022/11/24 05:59:20;;;;;;;17.55;16.50;;;;;;;10.55;63.16;100470.53;4977398;28;20505;-72
2022/11/24 06:01:46;;;;;;;17.67;16.77;;;;;;;10.55;63.19;100470.53;4977340;28;20046;-71
2022/11/24 06:04:11;;;;;;;19.05;17.77;;;;;;;10.55;63.13;100481.31;4977515;28;20035;-70
2022/11/24 06:06:36;;;;;;;16.88;15.93;;;;;;;10.55;63.22;100481.31;4976884;28;20061;-72
2022/11/24 06:09:03;;;;;;;19.85;18.55;;;;;;;10.55;63.11;100486.72;4977447;28;20051;-71
2022/11/24 06:11:28;;;;;;;19.10;17.80;;;;;;;10.55;63.17;100500.22;4977121;28;20031;-71
2022/11/24 06:13:53;;;;;;;17.85;16.63;;;;;;;10.55;63.22;100509.16;4976842;28;20034;-72
2022/11/24 06:16:19;;;;;;;19.13;18.02;;;;;;;10.55;63.04;100511.84;4977524;28;20031;-71
2022/11/24 06:18:44;;;;;;;18.52;17.40;;;;;;;10.55;63.16;100511.84;4977031;28;20034;-70
2022/11/24 06:21:09;;;;;;;18.52;17.23;;;;;;;10.54;63.50;100520.22;4977471;28;20090;-73
2022/11/24 06:23:35;;;;;;;18.30;17.08;;;;;;;10.55;63.13;100524.53;4992426;28;20031;-69
2022/11/24 06:26:00;;;;;;;18.58;17.63;;;;;;;10.53;63.13;100522.09;4991805;28;20439;-78
2022/11/24 06:28:26;;;;;;;17.88;16.98;;;;;;;10.55;62.91;100529.94;4991812;28;20039;-69
2022/11/24 06:30:52;;;;;;;17.85;16.95;;;;;;;10.55;63.27;100540.75;4977103;28;20043;-69
2022/11/24 06:33:18;;;;;;;19.55;18.27;;;;;;;10.55;63.15;100548.84;4976781;28;20031;-73
2022/11/24 06:35:44;;;;;;;17.75;16.85;;;;;;;10.56;63.27;100562.13;4976740;28;20042;-72
2022/11/24 06:38:09;;;;;;;19.27;17.88;;;;;;;10.56;63.26;100555.91;4975227;28;20086;-70
2022/11/24 06:40:35;;;;;;;18.85;17.33;;;;;;;10.55;63.05;100559.66;4976602;28;20031;-70
2022/11/24 06:43:01;;;;;;;18.60;17.30;;;;;;;10.56;63.00;100569.41;4975033;28;20109;-72
2022/11/24 06:45:26;;;;;;;17.40;16.27;;;;;;;10.56;63.10;100567.50;4976209;28;20047;-71
2022/11/24 06:47:53;;;;;;;18.45;17.40;;;;;;;10.54;63.20;100561.53;4976804;28;20419;-70
2022/11/24 06:50:19;;;;;;;20.92;19.45;;;;;;;10.54;63.29;100569.63;4976455;28;20062;-71
2022/11/24 06:52:44;;;;;;;18.65;17.60;;;;;;;10.55;63.14;100576.66;4976772;28;20067;-71
2022/11/24 06:55:09;;;;;;;21.13;19.52;;;;;;;10.56;63.20;100580.22;4976297;28;20089;-71
2022/11/24 06:57:35;;;;;;;17.85;16.60;;;;;;;10.56;63.15;100591.81;4976405;28;20035;-70
2022/11/24 07:00:01;;;;;;;17.60;16.70;;;;;;;10.55;63.13;100590.16;4976258;28;20031;-74
2022/11/24 07:02:27;;;;;;;17.30;16.35;;;;;;;10.56;63.31;100601.81;4975798;28;20531;-71
2022/11/24 07:04:52;;;;;;;17.73;16.73;;;;;;;10.55;63.12;100608.25;4976185;28;20043;-75
2022/11/24 07:07:17;;;;;;;18.67;17.58;;;;;;;10.54;63.30;100618.25;4990999;28;20031;-71
2022/11/24 07:09:43;;;;;;;17.63;16.63;;;;;;;10.54;63.05;100618.25;4976339;28;20110;-70
2022/11/24 07:12:08;;;;;;;18.35;17.20;;;;;;;10.55;63.21;100616.38;4976028;28;20034;-70
2022/11/24 07:14:33;;;;;;;19.65;17.70;;;;;;;10.54;63.24;100625.53;4990917;28;20062;-71
2022/11/24 07:17:01;;;;;;;18.67;17.58;;;;;;;10.55;63.15;100635.28;4975938;28;20463;-70
2022/11/24 07:19:26;;;;;;;18.15;17.08;;;;;;;10.54;63.36;100642.56;4975539;28;20384;-70
2022/11/24 07:21:51;;;;;;;19.55;18.00;;;;;;;10.54;63.23;100647.16;4990904;28;20035;-71
2022/11/24 07:24:17;;;;;;;18.75;17.65;;;;;;;10.55;63.22;100651.47;4975971;28;20105;-72
2022/11/24 07:26:42;;;;;;;16.60;15.70;;;;;;;10.55;63.11;100659.56;4974465;28;20026;-69
2022/11/24 07:29:08;;;;;;;20.30;19.02;;;;;;;10.54;63.22;100664.16;4975991;28;20038;-70
2022/11/24 07:31:33;;;;;;;17.73;16.63;;;;;;;10.55;63.27;100668.50;4975623;28;20181;-73
2022/11/24 07:33:59;;;;;;;19.95;18.38;;;;;;;10.54;63.39;100664.16;4975648;28;20045;-72
2022/11/24 07:36:24;;;;;;;19.70;18.50;;;;;;;10.55;63.29;100670.38;4975226;28;20038;-72
2022/11/24 07:38:50;;;;;;;19.42;18.42;;;;;;;10.54;63.29;100674.97;4975577;28;20117;-70
2022/11/24 07:41:18;;;;;;;19.58;17.92;;;;;;;10.54;63.24;100691.19;4975686;28;20060;-71
2022/11/24 07:43:44;;;;;;;18.63;17.63;;;;;;;10.54;63.28;100683.06;4975682;28;20055;-72
2022/11/24 07:46:13;;;;;;;18.52;17.40;;;;;;;10.54;63.31;100685.78;4975267;28;20041;-71
2022/11/24 07:48:39;;;;;;;16.92;15.93;;;;;;;10.54;63.16;100696.56;4974805;28;20038;-73
2022/11/24 07:51:05;;;;;;;18.27;17.05;;;;;;;10.54;63.29;100701.16;4989875;28;20031;-71
2022/11/24 07:53:31;;;;;;;17.80;16.90;;;;;;;10.54;63.15;100701.97;4974172;28;20038;-73
2022/11/24 07:55:59;;;;;;;18.35;17.35;;;;;;;10.54;63.01;100711.97;4975037;28;20062;-71
2022/11/24 07:58:26;;;;;;;18.65;17.25;;;;;;;10.54;63.43;100709.25;4975192;28;20530;-72
2022/11/24 08:00:51;;;;;;;18.10;17.10;;;;;;;10.53;63.24;100708.44;4974043;28;20035;-73
2022/11/24 08:03:19;;;;;;;21.48;19.88;;;;;;;10.53;63.06;100711.16;4975072;28;20039;-78
2022/11/24 08:05:56;;;;;;;17.60;16.50;;;;;;;10.54;63.08;100722.78;4975071;28;20034;-71
2022/11/24 08:08:21;;;;;;;19.90;18.65;;;;;;;10.54;63.07;100728.16;4975331;28;20033;-72
2022/11/24 08:10:47;;;;;;;18.70;17.30;;;;;;;10.53;63.25;100734.63;4974356;28;20054;-72
2022/11/24 08:13:12;;;;;;;17.38;16.25;;;;;;;10.53;63.29;100730.06;4974238;28;20031;-74
2022/11/24 08:15:38;;;;;;;17.15;16.15;;;;;;;10.52;63.11;100739.22;4989728;28;20037;-72
2022/11/24 08:18:04;;;;;;;18.52;17.45;;;;;;;10.52;63.18;100736.50;4990461;28;20034;-72
2022/11/24 08:20:29;;;;;;;20.63;19.35;;;;;;;10.52;63.19;100744.59;4975019;28;20039;-72
2022/11/24 08:22:58;;;;;;;19.05;17.92;;;;;;;10.51;63.20;100740.28;4974923;28;20027;-72
2022/11/24 08:25:30;;;;;;;18.20;16.95;;;;;;;10.52;62.99;100751.91;4973579;28;20031;-75
2022/11/24 08:27:55;;;;;;;16.38;15.48;;;;;;;10.51;63.33;100756.47;4974846;28;20035;-72
2022/11/24 08:30:21;;;;;;;18.25;17.05;;;;;;;10.50;63.18;100765.63;4975000;28;20042;-72
2022/11/24 08:32:46;;;;;;;17.60;16.35;;;;;;;10.50;63.15;100760.22;4974726;28;20496;-72
2022/11/24 08:35:12;;;;;;;17.48;16.58;;;;;;;10.51;63.23;100769.19;4989756;28;20031;-77
2022/11/24 08:37:37;;;;;;;17.20;15.88;;;;;;;10.50;63.21;100772.91;4989597;28;20093;-72
2022/11/24 08:40:03;;;;;;;16.75;15.63;;;;;;;10.49;63.27;100779.41;4974721;28;20093;-72
2022/11/24 08:42:28;;;;;;;18.17;16.73;;;;;;;10.50;63.22;100786.41;4973143;28;20557;-74
2022/11/24 08:44:54;;;;;;;17.48;16.35;;;;;;;10.49;63.49;100790.19;4974933;28;20046;-72
2022/11/24 08:47:20;;;;;;;18.88;17.35;;;;;;;10.48;63.27;100792.09;4972967;28;20042;-74
2022/11/24 08:49:46;;;;;;;17.38;16.38;;;;;;;10.50;63.19;100808.03;4975136;28;20062;-72
2022/11/24 08:52:11;;;;;;;17.05;16.05;;;;;;;10.49;63.30;100806.41;4974873;28;20360;-72
2022/11/24 08:54:36;;;;;;;18.67;17.48;;;;;;;10.48;63.15;100808.28;4974199;28;20043;-71
2022/11/24 08:57:02;;;;;;;17.45;16.45;;;;;;;10.48;63.07;100811.00;4957219;28;20038;-73
2022/11/24 08:59:27;;;;;;;17.77;16.77;;;;;;;10.48;63.28;100808.28;4974464;28;20039;-74
2022/11/24 09:01:53;;;;;;;18.10;17.10;;;;;;;10.48;63.10;100810.13;4977683;28;20034;-73
2022/11/24 09:04:18;;;;;;;19.33;17.98;;;;;;;10.49;63.48;100817.19;4993562;28;20038;-71
2022/11/24 09:06:43;;;;;;;18.17;16.92;;;;;;;10.47;63.04;100820.13;4978262;28;20483;-72
2022/11/24 09:09:09;;;;;;;17.10;16.10;;;;;;;10.47;63.22;100816.63;4993390;28;20043;-73
2022/11/24 09:11:35;;;;;;;18.52;17.13;;;;;;;10.47;63.39;100822.03;4978731;28;20025;-72
2022/11/24 09:14:00;;;;;;;17.25;16.35;;;;;;;10.46;63.22;100826.59;4978091;28;20060;-70
2022/11/24 09:16:27;;;;;;;20.25;18.85;;;;;;;10.46;63.14;100836.56;4977936;28;20042;-73
2022/11/24 09:19:01;;;;;;;17.52;16.33;;;;;;;10.47;63.11;100836.34;4978017;28;20034;-72
2022/11/24 09:21:27;;;;;;;19.45;18.05;;;;;;;10.45;63.15;100838.44;4978172;28;20031;-72
2022/11/24 09:23:53;;;;;;;18.40;16.85;;;;;;;10.45;63.10;100835.75;4992800;28;20114;-72
2022/11/24 09:26:24;;;;;;;19.08;17.98;;;;;;;10.46;63.25;100840.09;4978137;28;20034;-73
2022/11/24 09:28:53;;;;;;;18.25;17.05;;;;;;;10.45;63.01;100843.84;4978192;28;20034;-74
2022/11/24 09:31:21;;;;;;;18.65;17.48;;;;;;;10.45;63.15;100851.13;4977688;28;20442;-74
2022/11/24 09:33:46;;;;;;;17.40;15.93;;;;;;;10.45;63.17;100851.13;4977854;28;20046;-73
2022/11/24 09:36:12;;;;;;;17.25;16.27;;;;;;;10.45;63.29;100853.84;4992904;28;20039;-72
2022/11/24 09:38:38;;;;;;;17.38;16.10;;;;;;;10.45;63.45;100865.44;4976595;28;20114;-72
2022/11/24 09:41:32;;;;;;;17.08;16.13;;;;;;;10.43;63.13;100867.56;4976441;28;20114;-72
2022/11/24 09:44:25;;;;;;;17.90;16.80;;;;;;;10.43;63.10;100861.34;4977561;28;20035;-73
2022/11/24 09:47:35;;;;;;;17.88;16.50;;;;;;;10.42;63.07;100865.94;4992355;28;20054;-72
2022/11/24 09:50:21;;;;;;;17.75;16.55;;;;;;;10.41;63.27;100875.09;4957917;28;20057;-73
2022/11/24 09:53:00;;;;;;;19.73;17.92;;;;;;;10.40;63.05;100879.66;4992344;28;20114;-71
2022/11/24 09:55:50;;;;;;;19.70;17.90;;;;;;;10.40;62.98;100884.25;4977753;28;20054;-71
2022/11/24 09:58:26;;;;;;;17.48;16.48;;;;;;;10.40;63.26;100876.16;4977253;28;20031;-71
2022/11/24 10:00:53;;;;;;;17.65;16.25;;;;;;;10.40;63.25;100878.84;4977375;28;20022;-72
2022/11/24 10:03:40;;;;;;;18.98;17.33;;;;;;;10.40;63.15;100893.16;4977447;28;20039;-72
2022/11/24 10:06:20;;;;;;;19.10;17.73;;;;;;;10.41;63.20;100891.31;4977322;28;20030;-71
2022/11/24 10:09:20;;;;;;;17.92;16.63;;;;;;;10.41;63.23;100896.72;4977247;28;20031;-73
2022/11/24 10:11:55;;;;;;;17.67;16.58;;;;;;;10.40;63.25;100903.16;4976530;28;20106;-72
2022/11/24 10:14:30;;;;;;;17.65;16.30;;;;;;;10.39;63.05;100899.63;4977144;28;20106;-79
2022/11/24 10:17:16;;;;;;;18.65;16.63;;;;;;;10.39;63.37;100905.03;4976163;28;20163;-72
2022/11/24 10:19:48;;;;;;;18.80;17.45;;;;;;;10.39;63.15;100913.16;4977565;28;20046;-73
2022/11/24 10:22:38;;;;;;;17.58;16.52;;;;;;;10.38;63.32;100922.31;4975744;28;20109;-73
2022/11/24 10:25:24;;;;;;;18.25;16.77;;;;;;;10.38;63.14;100924.16;4992792;28;20042;-72
2022/11/24 10:28:01;;;;;;;17.63;16.52;;;;;;;10.37;63.37;100922.53;4976936;28;20118;-72
2022/11/24 10:30:26;;;;;;;18.90;17.80;;;;;;;10.36;63.34;100921.72;4975838;28;20355;-73
2022/11/24 10:32:57;;;;;;;19.38;18.27;;;;;;;10.36;63.32;100919.03;4976873;28;20039;-72
2022/11/24 10:35:29;;;;;;;19.60;18.02;;;;;;;10.37;63.38;100917.94;4976814;28;20027;-73
2022/11/24 10:38:15;;;;;;;17.60;16.52;;;;;;;10.38;63.17;100916.06;4976847;28;20030;-72
2022/11/24 10:40:44;;;;;;;20.00;18.48;;;;;;;10.38;63.18;100914.22;4976431;28;20119;-72
2022/11/24 10:43:11;;;;;;;19.65;18.15;;;;;;;10.38;63.30;100910.66;4976861;28;20479;-73
2022/11/24 10:45:38;;;;;;;19.17;17.77;;;;;;;10.38;63.51;100914.22;4975231;28;20046;-72
2022/11/24 10:48:28;;;;;;;18.92;17.50;;;;;;;10.39;63.34;100910.44;4976555;28;20045;-74
2022/11/24 10:51:05;;;;;;;19.15;17.83;;;;;;;10.40;63.18;100911.25;4974817;28;20038;-73
2022/11/24 10:53:34;;;;;;;20.15;18.73;;;;;;;10.40;63.20;100914.78;4976848;28;20062;-72
2022/11/24 10:56:00;;;;;;;;;;;;;;;10.40;63.27;100912.06;4977096;28;20038;-72
2022/11/24 10:58:30;;;;;;;16.80;15.70;;;;;;;10.40;63.25;100916.66;4976219;28;19910;-78
2022/11/24 11:00:58;;;;;;;19.35;17.77;;;;;;;10.40;63.25;100914.78;4991225;28;20109;-73
2022/11/24 11:03:27;;;;;;;17.60;16.02;;;;;;;10.42;63.18;100913.72;4976453;28;20085;-72
2022/11/24 11:06:04;;;;;;;18.02;16.58;;;;;;;10.42;63.36;100911.03;4976188;28;20093;-70
2022/11/24 11:08:31;;;;;;;18.33;16.85;;;;;;;10.42;63.31;100903.75;4975892;28;20052;-73
2022/11/24 11:11:32;;;;;;;18.70;17.50;;;;;;;10.44;63.32;100900.81;4976187;28;20041;-72
2022/11/24 11:14:00;;;;;;;17.50;16.40;;;;;;;10.44;63.38;100900.81;4935400;29;20036;-72
2022/11/24 11:16:37;;;;;;;18.08;16.52;;;;;;;10.44;63.17;100907.03;4968018;28;20050;-71
2022/11/24 11:19:28;;;;;;;18.00;16.80;;;;;;;10.45;63.25;100924.88;4976199;28;20026;-70